Date,TemperatureHighF,TemperatureAvgF,TemperatureLowF,DewpointHighF,DewpointAvgF,DewpointLowF,HumidityHigh,HumidityAvg,HumidityLow,PressureMaxIn,PressureMinIn,WindSpeedMaxMPH,WindSpeedAvgMPH,GustSpeedMaxMPH,PrecipitationSumIn
2013-8-1,90.9,72.4,56.7,55.4,49.8,42.8,77,48,20,30.07,29.92,12,2,12,0.00
2013-8-2,98.2,80.5,57.2,59.0,50.2,42.8,90,40,18,30.01,29.83,9,2,9,0.00
2013-8-3,95.5,74.0,57.0,59.0,52.8,46.4,88,51,24,29.98,29.86,10,2,10,0.00
2013-8-4,94.5,71.7,55.8,59.0,53.8,50.0,91,57,25,30.01,29.89,10,3,10,0.00
2013-8-5,93.7,71.7,56.8,57.2,53.2,44.6,92,57,21,30.03,29.89,10,3,10,0.00
2013-8-6,86.4,71.7,55.0,57.2,54.1,50.0,92,58,35,30.03,29.95,10,4,10,0.00
2013-8-7,82.8,68.2,60.4,57.2,55.1,51.8,84,64,40,30.09,30.01,13,4,13,0.00
2013-8-8,89.2,70.5,57.0,57.2,54.4,48.2,93,62,28,30.07,29.89,11,3,12,0.00
2013-8-9,88.3,69.7,55.8,59.0,54.9,50.0,92,63,33,29.98,29.89,11,2,11,0.00
2013-8-10,90.7,71.0,58.6,59.0,55.9,51.8,91,63,32,30.03,29.95,12,3,12,0.00
2013-8-11,95.7,77.5,57.4,60.8,55.3,48.2,93,52,26,30.03,29.89,9,2,11,0.00
2013-8-12,97.2,76.0,57.9,60.8,51.2,-7.6,89,48,2,30.01,29.89,8,2,8,0.00
2013-8-13,103.1,79.0,58.8,59.0,45.0,-5.8,79,40,2,30.01,29.86,9,1,9,0.00
2013-8-14,100.2,72.1,60.4,59.0,50.9,44.6,73,50,18,29.98,29.83,9,1,11,0.00
2013-8-15,99.9,78.9,61.5,62.6,59.1,55.4,85,55,26,29.98,29.86,11,2,11,0.00
2013-8-16,102.4,80.4,63.1,66.2,58.7,48.2,92,53,24,29.98,29.89,11,2,11,0.00
2013-8-17,97.3,77.4,63.1,60.8,55.2,48.2,83,48,29,29.98,29.83,12,2,12,0.00
2013-8-18,106.2,83.5,63.1,64.4,58.9,53.6,79,47,22,29.92,29.74,8,1,8,0.00
2013-8-19,107.4,84.6,70.5,66.2,58.4,48.2,70,44,15,29.92,29.71,10,2,10,0.00
2013-8-20,98.1,78.5,65.5,60.8,56.3,51.8,77,48,28,29.89,29.77,13,3,13,0.00
2013-8-21,93.4,74.2,61.0,59.0,54.4,48.2,86,53,24,29.95,29.83,11,2,11,0.00
2013-8-22,88.7,71.4,57.6,57.2,53.7,48.2,88,56,31,29.95,29.83,11,2,11,0.00
2013-8-23,94.5,72.7,55.9,59.0,54.3,50.0,94,57,27,29.92,29.77,9,2,9,0.00
2013-8-24,93.7,74.4,59.5,57.2,54.3,51.8,76,52,28,29.89,29.80,14,2,14,0.00
2013-8-25,94.5,75.4,62.2,66.2,59.5,53.6,90,62,32,29.95,29.83,13,2,13,0.00
2013-8-26,94.1,74.3,60.1,60.8,55.4,48.2,91,57,25,30.03,29.89,10,2,10,0.00
2013-8-27,98.4,76.0,57.7,60.8,53.1,44.6,85,50,19,29.92,29.77,10,2,10,0.00
2013-8-28,97.7,76.6,60.4,60.8,57.7,51.8,92,56,23,29.95,29.83,9,2,9,0.00
2013-8-29,96.3,77.2,61.3,64.4,59.3,55.4,93,59,27,30.03,29.92,10,1,10,0.00
2013-8-30,102.0,80.0,59.4,66.2,57.2,44.6,94,53,15,30.03,29.89,7,1,8,0.00
2013-8-31,98.1,78.5,63.5,60.8,53.3,46.4,77,45,18,29.98,29.83,13,2,13,0.00